Time;durP1;ratioP1;P1;durP2;ratioP2;P2;SDS_P1;SDS_P2;PMS_P1;PMS_P2;Temp;Humidity;BMP_temperature;BMP_pressure;BME280_temperature;BME280_humidity;BME280_pressure;Samples;Min_cycle;Max_cycle;Signal;HPM_P1;HPM_P2
2022/05/16 00:00:19;;;;;;;52.15;36.63;;;14.10;96.00;;;;;;5032701;28;20026;-73
2022/05/16 00:02:45;;;;;;;41.78;31.98;;;14.00;96.10;;;;;;5004864;28;20034;-73
2022/05/16 00:05:11;;;;;;;38.80;30.90;;;14.00;96.20;;;;;;4991927;28;20034;-72
2022/05/16 00:07:37;;;;;;;33.72;26.48;;;14.00;96.00;;;;;;5006598;28;20027;-72
2022/05/16 00:10:04;;;;;;;39.58;29.70;;;14.10;95.90;;;;;;4995575;28;20072;-72
2022/05/16 00:12:29;;;;;;;33.28;25.60;;;14.10;96.00;;;;;;5006195;28;20044;-71
2022/05/16 00:14:55;;;;;;;33.80;27.40;;;14.10;95.70;;;;;;5010560;28;20026;-75
2022/05/16 00:17:21;;;;;;;31.75;24.10;;;14.10;95.60;;;;;;5011226;28;20049;-73
2022/05/16 00:19:46;;;;;;;31.90;24.73;;;14.10;95.70;;;;;;5011152;28;20668;-73
2022/05/16 00:22:12;;;;;;;47.45;34.78;;;14.20;95.40;;;;;;5005532;28;20049;-77
2022/05/16 00:24:43;;;;;;;46.13;34.63;;;14.20;95.50;;;;;;5011106;28;20475;-73
2022/05/16 00:27:10;;;;;;;40.47;31.52;;;14.00;95.80;;;;;;5025001;28;20034;-74
2022/05/16 00:29:36;;;;;;;40.42;34.38;;;14.00;96.00;;;;;;5009565;28;20034;-73
2022/05/16 00:32:03;;;;;;;41.53;33.33;;;13.90;96.10;;;;;;5010834;28;20080;-74
2022/05/16 00:34:28;;;;;;;47.92;36.25;;;13.80;96.20;;;;;;5004803;28;20029;-74
2022/05/16 00:36:54;;;;;;;40.60;34.63;;;13.80;96.40;;;;;;5009635;28;20030;-74
2022/05/16 00:39:21;;;;;;;49.30;37.83;;;13.70;96.50;;;;;;5007530;28;20170;-72
2022/05/16 00:41:48;;;;;;;45.97;36.97;;;13.60;96.70;;;;;;5009764;28;20029;-73
2022/05/16 00:44:14;;;;;;;46.72;38.47;;;13.60;96.70;;;;;;5009774;28;20057;-73
2022/05/16 00:46:40;;;;;;;49.10;38.42;;;13.60;96.80;;;;;;5009799;28;20030;-72
2022/05/16 00:49:15;;;;;;;44.88;35.65;;;13.60;96.90;;;;;;5008800;28;20040;-73
2022/05/16 00:51:46;;;;;;;47.88;36.53;;;13.50;96.70;;;;;;5002956;28;20030;-72
2022/05/16 00:54:17;;;;;;;47.90;38.83;;;13.40;96.80;;;;;;5009284;28;20037;-72
2022/05/16 00:56:45;;;;;;;35.13;28.88;;;13.40;96.90;;;;;;5000318;28;20120;-72
2022/05/16 00:59:11;;;;;;;42.25;34.92;;;13.40;97.00;;;;;;5008965;28;20042;-74
2022/05/16 01:07:06;;;;;;;50.97;39.67;;;13.30;97.00;;;;;;5009017;28;20048;-73
2022/05/16 01:09:31;;;;;;;56.13;43.35;;;13.20;97.10;;;;;;5009016;28;20468;-74
2022/05/16 01:11:58;;;;;;;63.25;44.60;;;13.20;97.20;;;;;;5004642;28;20033;-75
2022/05/16 01:14:53;;;;;;;51.33;39.92;;;13.30;97.50;;;;;;5006326;28;20030;-75
2022/05/16 01:17:20;;;;;;;58.33;42.80;;;13.30;97.50;;;;;;5008220;28;20049;-76
2022/05/16 01:19:47;;;;;;;57.17;44.22;;;13.30;97.50;;;;;;5008850;28;20933;-72
2022/05/16 01:22:28;;;;;;;69.75;51.10;;;13.30;97.60;;;;;;4998218;28;20050;-72
2022/05/16 01:24:56;;;;;;;53.30;40.85;;;13.30;97.60;;;;;;5009483;28;20029;-73
2022/05/16 01:27:22;;;;;;;59.75;45.40;;;13.30;97.60;;;;;;5007845;28;20481;-73
2022/05/16 01:29:49;;;;;;;60.47;46.28;;;13.30;97.70;;;;;;5009076;28;20030;-75
2022/05/16 01:32:15;;;;;;;58.25;44.78;;;13.30;97.70;;;;;;5005007;28;20030;-72
2022/05/16 01:34:40;;;;;;;59.42;46.70;;;13.30;97.80;;;;;;5007960;28;20026;-73
2022/05/16 01:37:07;;;;;;;82.25;55.03;;;13.30;97.90;;;;;;5005043;28;20022;-72
2022/05/16 01:39:32;;;;;;;56.70;43.75;;;13.40;98.00;;;;;;5007333;28;20084;-73
2022/05/16 01:41:58;;;;;;;42.38;36.08;;;13.40;98.00;;;;;;5007713;28;20038;-72
2022/05/16 01:44:24;;;;;;;49.63;37.50;;;13.40;98.00;;;;;;5030930;28;20073;-75
2022/05/16 01:46:51;;;;;;;52.65;40.28;;;13.40;97.90;;;;;;5004010;28;20479;-73
2022/05/16 01:49:16;;;;;;;55.90;42.88;;;13.40;97.90;;;;;;5008057;28;20021;-73
2022/05/16 01:51:42;;;;;;;54.10;41.53;;;13.40;97.90;;;;;;5006701;28;20038;-75
2022/05/16 01:54:08;;;;;;;53.47;42.25;;;13.40;97.80;;;;;;5008223;28;20143;-73
2022/05/16 01:56:35;;;;;;;45.50;37.05;;;13.40;97.90;;;;;;5007973;28;20069;-73
2022/05/16 01:59:03;;;;;;;55.63;40.75;;;13.40;97.90;;;;;;5036849;28;20072;-73
2022/05/16 02:01:29;;;;;;;54.45;42.92;;;13.40;97.90;;;;;;5004457;28;20088;-74
2022/05/16 02:03:54;;;;;;;50.58;36.95;;;13.40;97.90;;;;;;5007576;28;20030;-73
2022/05/16 02:06:20;;;;;;;40.83;34.75;;;13.40;97.90;;;;;;5003506;28;20029;-73
2022/05/16 02:08:48;;;;;;;54.42;41.88;;;13.40;98.00;;;;;;5007506;28;20042;-73
2022/05/16 02:11:14;;;;;;;52.63;41.72;;;13.40;97.90;;;;;;5004091;28;20636;-73
2022/05/16 02:13:42;;;;;;;50.75;40.05;;;13.40;98.00;;;;;;5002150;28;20014;-72
2022/05/16 02:16:09;;;;;;;50.30;38.78;;;13.30;97.50;;;;;;4992735;28;20464;-72
2022/05/16 02:18:35;;;;;;;39.83;32.58;;;13.20;97.50;;;;;;5037902;28;20033;-74
2022/05/16 02:26:29;;;;;;;42.35;31.98;;;13.20;97.50;;;;;;5004288;28;20040;-72
2022/05/16 02:28:55;;;;;;;40.40;30.35;;;13.20;97.80;;;;;;5006426;28;20256;-73
2022/05/16 02:31:20;;;;;;;35.58;25.42;;;13.20;98.00;;;;;;5004202;28;20026;-73
2022/05/16 02:33:47;;;;;;;26.35;18.73;;;13.30;98.10;;;;;;5005990;28;20096;-73
2022/05/16 02:36:13;;;;;;;31.17;18.45;;;13.30;98.20;;;;;;5034794;28;20182;-72
2022/05/16 02:38:39;;;;;;;23.92;13.10;;;13.40;98.40;;;;;;4998496;28;20751;-72
2022/05/16 02:41:04;;;;;;;22.05;9.68;;;13.60;98.70;;;;;;5003277;28;20030;-71
2022/05/16 02:43:30;;;;;;;15.13;9.07;;;13.70;98.60;;;;;;5002617;28;20123;-73
2022/05/16 02:45:56;;;;;;;12.43;7.18;;;13.80;98.70;;;;;;5002015;28;20052;-73
2022/05/16 02:48:21;;;;;;;16.35;7.70;;;13.90;98.30;;;;;;5004486;28;20037;-75
2022/05/16 02:50:47;;;;;;;13.18;6.03;;;14.00;98.00;;;;;;5007320;28;20041;-73
2022/05/16 02:53:12;;;;;;;12.27;5.65;;;14.10;97.90;;;;;;4999734;28;20053;-73
2022/05/16 02:55:38;;;;;;;13.43;5.82;;;14.30;97.70;;;;;;5003468;28;20395;-73
2022/05/16 02:58:08;;;;;;;13.73;5.30;;;14.30;97.30;;;;;;5007555;28;20435;-73
2022/05/16 03:00:33;;;;;;;12.90;4.88;;;14.50;97.10;;;;;;5006001;28;20079;-74
2022/05/16 03:02:59;;;;;;;14.43;5.60;;;14.60;96.80;;;;;;5006933;28;20033;-74
2022/05/16 03:05:25;;;;;;;12.85;6.53;;;14.60;96.60;;;;;;5010882;28;20034;-73
2022/05/16 03:07:51;;;;;;;12.00;6.13;;;14.60;96.40;;;;;;5010771;28;20580;-73
2022/05/16 03:10:17;;;;;;;10.23;6.00;;;14.60;96.40;;;;;;5008400;28;20053;-74
2022/05/16 03:12:46;;;;;;;14.82;6.88;;;14.70;96.30;;;;;;5007179;28;20595;-72
2022/05/16 03:15:14;;;;;;;12.23;6.27;;;14.70;96.20;;;;;;5007429;28;20087;-73
2022/05/16 03:17:40;;;;;;;13.43;6.60;;;14.60;96.20;;;;;;5000389;28;20595;-73
2022/05/16 03:20:12;;;;;;;13.85;8.00;;;14.60;96.10;;;;;;5010262;28;20117;-73
2022/05/16 03:22:38;;;;;;;14.57;7.20;;;14.60;96.10;;;;;;5032928;28;20138;-73
2022/05/16 03:25:04;;;;;;;14.23;7.28;;;14.50;96.10;;;;;;5006915;28;20105;-73
2022/05/16 03:27:30;;;;;;;17.58;8.65;;;14.50;95.90;;;;;;5010730;28;20029;-73
2022/05/16 03:29:56;;;;;;;14.55;7.22;;;14.50;96.00;;;;;;5010379;28;20021;-72
2022/05/16 03:32:21;;;;;;;12.15;7.78;;;14.50;95.90;;;;;;5009336;28;20111;-72
2022/05/16 03:34:53;;;;;;;17.92;9.25;;;14.50;95.80;;;;;;5011316;28;20041;-73
2022/05/16 03:37:18;;;;;;;19.45;8.80;;;14.40;95.90;;;;;;5010834;28;20030;-75
2022/05/16 03:42:32;;;;;;;16.02;8.70;;;14.30;96.00;;;;;;5006698;28;20061;-73
2022/05/16 03:44:58;;;;;;;18.65;10.43;;;14.30;96.20;;;;;;5007274;28;20034;-73
2022/05/16 03:47:23;;;;;;;22.35;11.10;;;14.20;96.30;;;;;;5010450;28;20026;-72
2022/05/16 03:49:49;;;;;;;16.77;9.88;;;14.20;96.40;;;;;;5010555;28;20029;-74
2022/05/16 03:52:15;;;;;;;21.83;11.73;;;14.10;96.50;;;;;;5008699;28;20033;-73
2022/05/16 03:54:41;;;;;;;17.63;11.10;;;14.10;96.60;;;;;;5010677;28;20450;-73
2022/05/16 03:57:07;;;;;;;18.92;12.32;;;14.10;96.70;;;;;;5007181;28;20460;-73
2022/05/16 03:59:33;;;;;;;21.65;11.95;;;14.00;96.80;;;;;;5001387;28;20034;-74
2022/05/16 04:01:58;;;;;;;17.15;8.55;;;14.00;96.90;;;;;;5008777;28;20726;-74
2022/05/16 04:04:25;;;;;;;17.60;8.65;;;14.00;96.80;;;;;;5009713;28;20384;-73
2022/05/16 04:06:51;;;;;;;18.25;8.95;;;14.00;96.80;;;;;;5008932;28;20026;-73
2022/05/16 04:09:17;;;;;;;21.40;7.82;;;13.90;96.90;;;;;;5007904;28;20041;-72
2022/05/16 04:11:42;;;;;;;19.20;7.72;;;13.90;96.90;;;;;;5009520;28;20037;-73
2022/05/16 04:14:08;;;;;;;19.25;7.25;;;13.90;96.90;;;;;;5010002;28;20029;-73
2022/05/16 04:16:34;;;;;;;18.05;7.47;;;13.90;96.90;;;;;;5009048;28;20026;-73
2022/05/16 04:19:00;;;;;;;19.52;6.80;;;14.00;96.80;;;;;;5009277;28;20117;-72
2022/05/16 04:21:26;;;;;;;18.58;6.50;;;14.00;96.70;;;;;;5008955;28;20396;-73
2022/05/16 04:23:51;;;;;;;18.08;6.20;;;14.00;96.60;;;;;;5009900;28;20052;-73
2022/05/16 04:26:17;;;;;;;20.08;6.28;;;14.10;96.60;;;;;;5009859;28;20034;-72
2022/05/16 04:28:43;;;;;;;14.45;5.75;;;14.10;96.50;;;;;;5010051;28;20026;-72
2022/05/16 04:31:08;;;;;;;15.23;5.78;;;14.20;96.20;;;;;;5009179;28;20029;-72
2022/05/16 04:33:35;;;;;;;13.30;5.20;;;14.30;96.10;;;;;;5009884;28;20029;-73
2022/05/16 04:36:01;;;;;;;18.55;5.70;;;14.30;96.10;;;;;;5009933;28;20068;-74
2022/05/16 04:38:27;;;;;;;18.52;5.13;;;14.30;96.00;;;;;;5009644;28;20408;-72
2022/05/16 04:43:37;;;;;;;18.30;6.30;;;14.30;95.90;;;;;;5000446;28;20577;-72
2022/05/16 04:46:06;;;;;;;19.70;7.22;;;14.30;95.90;;;;;;5009168;28;20030;-75
2022/05/16 04:48:32;;;;;;;23.58;9.40;;;14.30;95.70;;;;;;5009337;28;20033;-73
2022/05/16 04:50:58;;;;;;;25.77;8.85;;;14.30;95.70;;;;;;5005327;28;20056;-73
2022/05/16 04:53:24;;;;;;;30.60;11.13;;;14.30;95.80;;;;;;5007539;28;20665;-72
2022/05/16 04:55:51;;;;;;;25.63;11.85;;;14.20;95.80;;;;;;4997811;28;20026;-71
2022/05/16 04:58:16;;;;;;;29.75;12.32;;;14.20;95.90;;;;;;5002708;28;20026;-72
2022/05/16 05:00:42;;;;;;;31.40;13.68;;;14.20;96.00;;;;;;4997113;28;20724;-72
2022/05/16 05:03:08;;;;;;;29.95;15.30;;;14.20;96.00;;;;;;4996088;28;20148;-73
2022/05/16 05:05:35;;;;;;;27.63;15.02;;;14.20;96.10;;;;;;5006719;28;20415;-74
2022/05/16 05:08:00;;;;;;;33.30;18.40;;;14.30;96.20;;;;;;5009299;28;20057;-73
2022/05/16 05:16:14;;;;;;;41.42;26.08;;;14.40;96.40;;;;;;5009761;28;20057;-73
2022/05/16 05:18:40;;;;;;;39.90;26.25;;;14.40;96.50;;;;;;5023993;28;20177;-74
2022/05/16 05:21:07;;;;;;;41.65;28.77;;;14.40;96.50;;;;;;5009828;28;20073;-71
2022/05/16 05:23:34;;;;;;;43.92;28.25;;;14.50;96.50;;;;;;5000774;28;20061;-73
2022/05/16 05:26:00;;;;;;;42.72;28.75;;;14.50;96.50;;;;;;5027261;28;20022;-73
2022/05/16 05:28:26;;;;;;;44.20;31.90;;;14.50;96.40;;;;;;5003654;28;20053;-74
2022/05/16 05:30:52;;;;;;;45.47;29.00;;;14.50;96.40;;;;;;5001565;28;20469;-74
2022/05/16 05:33:17;;;;;;;46.55;30.92;;;14.50;96.40;;;;;;5014418;28;20037;-73
2022/05/16 05:35:43;;;;;;;49.10;30.63;;;14.50;96.40;;;;;;5004349;28;20026;-73
2022/05/16 05:38:09;;;;;;;44.20;27.95;;;14.50;96.40;;;;;;5004302;28;20026;-72
2022/05/16 05:40:37;;;;;;;48.45;30.42;;;14.50;96.50;;;;;;5004814;28;20125;-74
2022/05/16 05:43:07;;;;;;;42.97;29.45;;;14.50;96.50;;;;;;5008382;28;20038;-73
2022/05/16 05:45:34;;;;;;;42.35;27.77;;;14.50;96.40;;;;;;4997602;28;20532;-72
2022/05/16 05:48:01;;;;;;;40.47;27.15;;;14.60;96.40;;;;;;5029296;28;20034;-75
2022/05/16 05:50:27;;;;;;;37.33;23.77;;;14.60;96.40;;;;;;5020046;28;20034;-74
2022/05/16 05:52:53;;;;;;;41.50;23.63;;;14.60;96.20;;;;;;5006862;28;20083;-73
2022/05/16 05:55:19;;;;;;;35.45;21.92;;;14.70;96.20;;;;;;5004863;28;20026;-73
2022/05/16 05:57:45;;;;;;;30.50;19.10;;;14.70;96.10;;;;;;5003722;28;20113;-73
2022/05/16 06:00:12;;;;;;;31.40;18.95;;;14.80;96.00;;;;;;5005206;28;20034;-74
2022/05/16 06:02:40;;;;;;;29.10;18.05;;;14.80;95.70;;;;;;4999933;28;20080;-75
2022/05/16 06:05:10;;;;;;;34.17;19.15;;;14.80;95.50;;;;;;5006653;28;20034;-75
2022/05/16 06:07:36;;;;;;;34.58;19.83;;;14.80;95.40;;;;;;5036512;28;20569;-76
2022/05/16 06:10:03;;;;;;;33.55;21.60;;;14.70;95.10;;;;;;5007583;28;20034;-75
2022/05/16 06:12:30;;;;;;;35.42;23.45;;;14.70;95.40;;;;;;4989496;28;20022;-75
2022/05/16 06:14:55;;;;;;;36.13;21.20;;;14.60;95.30;;;;;;5006344;28;20033;-76
2022/05/16 06:17:21;;;;;;;37.13;21.30;;;14.50;95.40;;;;;;5000655;28;20025;-77
2022/05/16 06:19:47;;;;;;;35.42;21.63;;;14.50;95.50;;;;;;5008835;28;20030;-74
2022/05/16 06:22:13;;;;;;;34.03;20.80;;;14.50;95.60;;;;;;5006449;28;20049;-76
2022/05/16 06:27:23;;;;;;;33.60;18.55;;;14.50;95.60;;;;;;5006864;28;20045;-76
2022/05/16 06:29:49;;;;;;;33.30;17.88;;;14.50;95.60;;;;;;5022972;28;20033;-74
2022/05/16 06:32:14;;;;;;;32.28;16.35;;;14.60;95.80;;;;;;5008597;28;20448;-76
2022/05/16 06:34:40;;;;;;;33.55;15.93;;;14.60;95.60;;;;;;5006401;28;20056;-74
2022/05/16 06:37:06;;;;;;;37.83;17.30;;;14.60;95.70;;;;;;4998777;28;20061;-73
2022/05/16 06:39:32;;;;;;;34.42;16.10;;;14.60;95.60;;;;;;5003690;28;20026;-74
2022/05/16 06:41:57;;;;;;;39.47;15.95;;;14.70;95.50;;;;;;4999029;28;20450;-74
2022/05/16 06:44:23;;;;;;;31.48;14.73;;;14.70;95.40;;;;;;5019176;28;20145;-75
2022/05/16 06:46:48;;;;;;;31.42;14.68;;;14.80;95.30;;;;;;5006117;28;20545;-74
2022/05/16 06:49:14;;;;;;;32.25;12.93;;;14.80;95.40;;;;;;5001007;28;20102;-73
2022/05/16 06:51:40;;;;;;;26.55;13.73;;;14.90;94.70;;;;;;5005965;28;20045;-75
2022/05/16 06:54:06;;;;;;;30.85;12.30;;;14.90;95.00;;;;;;5005456;28;20034;-73
2022/05/16 06:56:32;;;;;;;24.55;11.35;;;14.90;94.70;;;;;;5006773;28;20526;-73
2022/05/16 06:58:58;;;;;;;25.08;10.20;;;14.90;94.80;;;;;;5014655;28;20036;-74
2022/05/16 07:01:24;;;;;;;24.15;10.68;;;14.90;94.50;;;;;;5005128;28;20092;-73
2022/05/16 07:03:50;;;;;;;25.23;10.80;;;14.80;94.50;;;;;;5006517;28;20091;-72
2022/05/16 07:06:16;;;;;;;22.35;10.82;;;14.80;94.60;;;;;;5009467;28;20464;-72
2022/05/16 07:08:42;;;;;;;28.25;10.27;;;14.80;94.60;;;;;;4993289;28;20431;-74
2022/05/16 07:11:09;;;;;;;30.70;11.07;;;14.80;94.80;;;;;;5005148;28;20396;-73
2022/05/16 07:13:34;;;;;;;27.52;10.27;;;14.80;94.90;;;;;;5003458;28;20034;-73
2022/05/16 07:16:01;;;;;;;26.70;10.35;;;14.80;94.90;;;;;;5000169;28;20036;-74
2022/05/16 07:18:27;;;;;;;25.13;9.65;;;14.80;94.90;;;;;;5017521;28;20072;-73
2022/05/16 07:20:55;;;;;;;25.50;9.98;;;14.80;94.70;;;;;;4998482;28;20667;-73
2022/05/16 07:23:21;;;;;;;21.08;8.88;;;14.80;94.80;;;;;;5009531;28;20042;-70
2022/05/16 07:28:31;;;;;;;29.27;10.50;;;14.90;94.70;;;;;;5006475;28;20037;-73
2022/05/16 07:30:57;;;;;;;22.90;9.40;;;15.00;94.70;;;;;;5004436;28;20038;-72
2022/05/16 07:33:23;;;;;;;25.55;8.98;;;15.00;94.60;;;;;;4998768;28;20038;-72
2022/05/16 07:35:50;;;;;;;22.65;9.10;;;15.00;94.70;;;;;;5004388;28;20030;-72
2022/05/16 07:38:17;;;;;;;22.95;9.77;;;15.10;94.50;;;;;;5004994;28;20520;-71
2022/05/16 07:40:43;;;;;;;26.38;8.90;;;15.20;94.50;;;;;;5004722;28;20073;-73
2022/05/16 07:43:09;;;;;;;20.23;7.78;;;15.30;94.10;;;;;;5022196;28;20124;-72
2022/05/16 07:45:34;;;;;;;30.40;9.75;;;15.30;93.70;;;;;;5004798;28;20055;-72
2022/05/16 07:48:03;;;;;;;27.48;9.60;;;15.30;94.00;;;;;;5007493;28;20104;-72
2022/05/16 07:50:33;;;;;;;22.85;9.60;;;15.30;94.10;;;;;;5000478;28;20026;-74
2022/05/16 07:52:59;;;;;;;25.10;8.85;;;15.30;94.30;;;;;;5000123;28;20069;-73
2022/05/16 07:55:26;;;;;;;21.60;8.98;;;15.30;94.40;;;;;;5002921;28;20050;-72
2022/05/16 07:57:52;;;;;;;21.55;8.45;;;15.30;94.30;;;;;;5009763;28;20136;-73
2022/05/16 08:00:19;;;;;;;24.90;8.30;;;15.40;94.20;;;;;;5002921;28;20428;-74
2022/05/16 08:02:45;;;;;;;21.27;7.13;;;15.50;94.20;;;;;;5034160;28;20042;-72
2022/05/16 08:05:14;;;;;;;18.98;7.13;;;15.70;93.60;;;;;;5010299;28;20026;-72
2022/05/16 08:10:31;;;;;;;25.95;7.65;;;15.70;93.60;;;;;;5002617;28;20038;-72
2022/05/16 08:13:00;;;;;;;20.17;7.00;;;15.80;93.50;;;;;;5008944;28;20026;-73
2022/05/16 08:15:26;;;;;;;23.30;7.60;;;15.80;93.50;;;;;;5011053;28;20034;-71
2022/05/16 08:17:52;;;;;;;27.13;7.40;;;15.90;93.40;;;;;;5009002;28;20384;-73
2022/05/16 08:20:18;;;;;;;21.92;6.93;;;15.90;92.80;;;;;;4991674;28;20057;-73
2022/05/16 08:22:44;;;;;;;21.85;7.57;;;15.90;92.80;;;;;;5000661;28;20050;-73
2022/05/16 08:25:09;;;;;;;23.75;7.20;;;15.90;93.10;;;;;;5010896;28;20542;-73
2022/05/16 08:27:35;;;;;;;26.17;7.10;;;15.90;93.00;;;;;;5011202;28;20356;-73
2022/05/16 08:30:01;;;;;;;25.00;7.10;;;15.90;93.00;;;;;;4994833;28;20027;-73
2022/05/16 08:32:27;;;;;;;27.15;7.60;;;16.00;92.90;;;;;;4991131;28;20473;-72
2022/05/16 08:34:59;;;;;;;22.65;7.05;;;16.20;92.90;;;;;;4998974;28;20101;-72
2022/05/16 08:40:09;;;;;;;19.05;6.20;;;16.50;92.10;;;;;;4996493;28;20037;-72
2022/05/16 08:42:44;;;;;;;22.17;6.40;;;16.70;91.40;;;;;;5008609;28;20064;-72
2022/05/16 08:45:37;;;;;;;24.25;6.60;;;16.80;91.50;;;;;;5010281;28;20038;-74
2022/05/16 08:48:08;;;;;;;26.45;6.88;;;17.00;90.60;;;;;;4997189;28;20453;-73
2022/05/16 08:50:47;;;;;;;21.17;7.13;;;17.00;90.50;;;;;;4999845;28;20065;-74
2022/05/16 08:53:18;;;;;;;25.60;6.95;;;16.90;90.40;;;;;;4998590;28;20022;-73
2022/05/16 08:56:04;;;;;;;22.42;6.35;;;16.90;90.60;;;;;;5002219;28;20026;-72
2022/05/16 08:58:39;;;;;;;23.45;6.82;;;16.80;90.70;;;;;;5022193;28;20477;-73
2022/05/16 09:01:26;;;;;;;20.30;5.97;;;16.80;90.10;;;;;;5020509;28;20520;-73
2022/05/16 09:04:04;;;;;;;21.50;6.60;;;16.90;90.50;;;;;;5006323;28;20036;-73
2022/05/16 09:06:39;;;;;;;21.08;6.10;;;17.00;90.40;;;;;;5002449;28;20061;-73
2022/05/16 09:09:14;;;;;;;26.67;6.18;;;17.20;90.10;;;;;;5009309;28;20037;-73
2022/05/16 09:11:52;;;;;;;20.20;6.22;;;17.20;89.20;;;;;;5009793;28;20061;-76
2022/05/16 09:14:54;;;;;;;16.98;6.10;;;17.10;89.20;;;;;;5005767;28;20038;-74
2022/05/16 09:17:57;;;;;;;26.73;7.07;;;16.90;90.30;;;;;;5007639;28;20025;-73
2022/05/16 09:21:16;;;;;;;17.17;5.55;;;16.70;90.20;;;;;;5009794;28;20025;-73
2022/05/16 09:23:47;;;;;;;21.90;6.10;;;16.60;90.00;;;;;;5006722;28;20050;-75
2022/05/16 09:26:32;;;;;;;20.50;6.88;;;16.40;90.50;;;;;;5003535;28;20078;-73
2022/05/16 09:29:27;;;;;;;20.73;6.20;;;16.40;90.60;;;;;;5006157;28;20049;-74
2022/05/16 09:32:22;;;;;;;21.02;6.30;;;16.40;90.60;;;;;;5005970;28;20144;-72
2022/05/16 09:34:47;;;;;;;22.33;6.38;;;16.40;90.40;;;;;;4991637;28;20046;-73
2022/05/16 09:37:13;;;;;;;23.42;6.90;;;16.40;90.50;;;;;;4986947;28;20027;-73
2022/05/16 09:39:39;;;;;;;22.38;6.07;;;16.40;90.70;;;;;;4988552;28;20033;-73
2022/05/16 09:42:19;;;;;;;20.58;6.10;;;16.30;90.80;;;;;;5001124;28;20100;-73
2022/05/16 09:44:58;;;;;;;21.77;5.78;;;16.40;90.50;;;;;;5005643;28;20617;-78
2022/05/16 09:47:29;;;;;;;24.48;5.95;;;16.40;90.90;;;;;;5006578;28;20165;-73
2022/05/16 09:50:21;;;;;;;22.52;5.28;;;16.40;90.70;;;;;;4993487;28;20034;-74
2022/05/16 09:52:50;;;;;;;23.75;6.20;;;16.30;90.40;;;;;;4997720;28;20177;-73
2022/05/16 09:55:35;;;;;;;20.05;5.43;;;16.20;90.70;;;;;;5007710;28;20120;-72
2022/05/16 09:58:13;;;;;;;19.15;5.85;;;16.20;91.10;;;;;;5009229;28;20040;-71
2022/05/16 10:00:45;;;;;;;20.73;5.60;;;16.10;91.50;;;;;;4998063;28;20439;-73
2022/05/16 10:03:20;;;;;;;23.08;6.53;;;16.00;91.30;;;;;;4988275;28;20485;-75
2022/05/16 10:05:47;;;;;;;22.98;6.43;;;16.00;91.80;;;;;;5002736;28;20026;-74
2022/05/16 10:08:28;;;;;;;20.00;4.85;;;16.00;91.50;;;;;;4998020;28;20155;-74
2022/05/16 10:10:55;;;;;;;20.98;5.20;;;16.10;91.20;;;;;;4999751;28;20101;-72
2022/05/16 10:13:21;;;;;;;20.00;5.28;;;16.10;91.10;;;;;;5002502;28;20045;-74
2022/05/16 10:15:51;;;;;;;20.05;5.25;;;16.10;91.10;;;;;;5012020;28;20030;-73
2022/05/16 10:18:21;;;;;;;27.58;5.30;;;16.20;90.90;;;;;;5029436;28;20038;-73
2022/05/16 10:20:53;;;;;;;21.13;4.43;;;16.50;90.50;;;;;;5005395;28;20068;-72
2022/05/16 10:23:29;;;;;;;17.95;4.55;;;16.70;89.40;;;;;;5013873;28;20802;-73
2022/05/16 10:25:59;;;;;;;15.23;5.05;;;16.80;89.50;;;;;;5023620;28;20037;-73
2022/05/16 10:28:38;;;;;;;15.63;4.45;;;16.90;90.00;;;;;;5008548;28;20022;-72
2022/05/16 10:33:51;;;;;;;19.88;4.80;;;17.10;88.50;;;;;;5005567;28;19963;-73
2022/05/16 10:36:30;;;;;;;18.45;4.70;;;17.20;89.00;;;;;;5006456;28;20038;-74
2022/05/16 10:39:09;;;;;;;15.20;4.80;;;17.40;88.00;;;;;;5005887;28;20033;-73
2022/05/16 10:41:59;;;;;;;13.80;4.20;;;17.30;86.50;;;;;;4995010;28;20389;-73
2022/05/16 10:44:35;;;;;;;17.30;4.72;;;17.30;87.70;;;;;;5007479;28;20026;-73
2022/05/16 10:47:21;;;;;;;21.02;5.07;;;17.40;87.70;;;;;;5000567;28;20034;-73
2022/05/16 10:50:08;;;;;;;16.67;4.63;;;17.60;85.90;;;;;;5006473;28;20066;-73
2022/05/16 10:52:43;;;;;;;22.75;5.45;;;17.60;85.90;;;;;;4992028;28;20034;-73
2022/05/16 10:55:09;;;;;;;16.73;5.05;;;17.50;85.10;;;;;;4992724;28;20030;-73
2022/05/16 10:57:57;;;;;;;17.95;5.05;;;17.60;85.80;;;;;;5008337;28;20465;-72
2022/05/16 11:00:34;;;;;;;21.95;5.30;;;17.90;86.40;;;;;;5007228;28;20044;-73
2022/05/16 11:03:18;;;;;;;19.10;4.70;;;18.30;83.60;;;;;;5008505;28;20029;-73
2022/05/16 11:06:03;;;;;;;21.67;4.95;;;18.50;81.90;;;;;;5000444;28;20022;-74
2022/05/16 11:08:36;;;;;;;17.88;4.78;;;18.70;82.10;;;;;;4994328;28;20038;-73
2022/05/16 11:11:25;;;;;;;20.45;4.80;;;18.80;82.10;;;;;;5006005;28;20539;-74
2022/05/16 11:13:55;;;;;;;;;;;18.80;81.10;;;;;;5001060;28;20030;-73
2022/05/16 11:16:32;;;;;;;20.13;4.40;;;18.60;81.40;;;;;;5008381;28;19906;-72
2022/05/16 11:19:34;;;;;;;22.85;5.05;;;18.40;81.80;;;;;;5006670;28;20034;-73
2022/05/16 11:22:04;;;;;;;18.50;4.25;;;19.00;81.10;;;;;;4995836;28;20049;-75
2022/05/16 11:25:00;;;;;;;16.38;4.03;;;19.90;78.10;;;;;;5021379;28;20119;-73
2022/05/16 11:27:35;;;;;;;22.85;4.88;;;20.10;76.40;;;;;;5002643;28;20477;-73
2022/05/16 11:30:37;;;;;;;18.45;4.72;;;19.70;76.10;;;;;;5009166;28;20061;-74
2022/05/16 11:33:31;;;;;;;17.27;4.30;;;19.20;78.80;;;;;;5010108;28;20045;-76
2022/05/16 11:36:05;;;;;;;17.88;4.60;;;18.90;80.00;;;;;;5011070;28;20598;-73
2022/05/16 11:38:35;;;;;;;19.90;4.10;;;18.70;80.70;;;;;;5008607;28;20033;-77
2022/05/16 11:41:19;;;;;;;19.42;4.35;;;18.60;80.30;;;;;;5039698;28;20042;-73
2022/05/16 11:43:48;;;;;;;22.30;4.68;;;18.70;80.00;;;;;;5007857;28;20372;-74
2022/05/16 11:46:23;;;;;;;19.90;4.47;;;18.90;79.30;;;;;;5008093;28;20030;-72
2022/05/16 11:49:11;;;;;;;16.08;3.85;;;19.60;78.30;;;;;;5003919;28;20041;-73
2022/05/16 11:51:45;;;;;;;19.58;3.92;;;19.60;76.30;;;;;;5008681;28;20503;-74
2022/05/16 11:54:17;;;;;;;15.95;4.03;;;19.70;75.60;;;;;;4998709;28;20105;-73
2022/05/16 12:02:28;;;;;;;15.88;4.15;;;19.30;79.00;;;;;;5003429;28;20076;-73
2022/05/16 12:05:09;;;;;;;17.17;3.88;;;19.20;77.00;;;;;;5000510;28;20038;-73
2022/05/16 12:07:35;;;;;;;16.42;3.80;;;19.20;76.60;;;;;;4994955;28;20057;-75
2022/05/16 12:10:09;;;;;;;14.05;3.30;;;19.20;78.10;;;;;;5018968;28;20064;-74
2022/05/16 12:12:38;;;;;;;15.40;3.83;;;19.70;76.60;;;;;;5006217;28;20026;-75
2022/05/16 12:15:16;;;;;;;16.23;3.78;;;20.10;73.70;;;;;;5008760;28;20030;-71
2022/05/16 12:18:00;;;;;;;12.70;3.22;;;20.30;73.60;;;;;;5009291;28;20045;-73
2022/05/16 12:20:35;;;;;;;15.70;3.60;;;20.30;74.00;;;;;;5009691;28;20089;-71
2022/05/16 12:23:01;;;;;;;16.58;3.65;;;20.70;73.20;;;;;;5009815;28;20057;-71
2022/05/16 12:25:33;;;;;;;13.15;3.55;;;20.50;75.10;;;;;;5022196;28;20748;-73
2022/05/16 12:28:19;;;;;;;15.73;3.30;;;21.60;71.10;;;;;;5008857;28;20579;-72
2022/05/16 12:30:51;;;;;;;14.93;3.47;;;23.70;65.20;;;;;;5016636;28;20037;-71
2022/05/16 12:33:34;;;;;;;18.85;3.42;;;23.70;64.00;;;;;;5005403;28;20026;-73
2022/05/16 12:36:00;;;;;;;15.65;3.25;;;22.60;63.80;;;;;;5010927;28;20034;-73
2022/05/16 12:38:28;;;;;;;16.88;4.03;;;21.60;66.30;;;;;;5012186;28;20040;-72
2022/05/16 12:41:40;;;;;;;15.52;3.65;;;21.00;69.20;;;;;;5004478;28;20042;-72
2022/05/16 12:44:09;;;;;;;17.83;3.55;;;20.80;72.30;;;;;;4996729;28;20072;-73
2022/05/16 12:46:34;;;;;;;17.05;3.70;;;20.70;71.90;;;;;;5006370;28;20065;-71
2022/05/16 12:49:19;;;;;;;15.32;3.47;;;20.60;73.40;;;;;;5041109;28;20034;-76
2022/05/16 12:51:59;;;;;;;19.55;3.22;;;20.50;72.70;;;;;;5007263;28;20053;-73
2022/05/16 12:54:25;;;;;;;9.90;2.67;;;20.50;72.70;;;;;;5007462;28;20036;-73
2022/05/16 12:56:59;;;;;;;17.83;3.10;;;20.60;72.50;;;;;;5040590;28;20021;-72
2022/05/16 12:59:30;;;;;;;17.00;2.90;;;20.60;70.50;;;;;;5039976;28;20044;-74
2022/05/16 13:02:21;;;;;;;13.32;3.15;;;20.60;72.10;;;;;;5006442;28;20036;-74
2022/05/16 13:04:56;;;;;;;13.50;3.47;;;20.60;72.00;;;;;;5007605;28;20076;-73
2022/05/16 13:07:38;;;;;;;9.73;2.78;;;20.80;71.50;;;;;;5007547;28;20030;-73
2022/05/16 13:10:12;;;;;;;12.85;2.92;;;20.90;71.10;;;;;;5000106;28;20037;-74
2022/05/16 13:13:15;;;;;;;11.82;2.50;;;21.00;71.50;;;;;;5010509;28;20077;-73
2022/05/16 13:15:47;;;;;;;11.43;2.78;;;21.00;69.70;;;;;;5010035;28;20034;-74
2022/05/16 13:18:29;;;;;;;13.68;2.85;;;21.00;69.00;;;;;;5010474;28;20026;-75
2022/05/16 13:20:59;;;;;;;10.02;2.58;;;20.60;68.20;;;;;;5023365;28;20053;-73
2022/05/16 13:23:25;;;;;;;15.50;3.05;;;20.20;69.90;;;;;;5009160;28;20085;-74
2022/05/16 13:31:33;;;;;;;12.77;3.25;;;20.00;72.00;;;;;;5010919;28;20427;-71
2022/05/16 13:34:00;;;;;;;11.82;2.65;;;20.10;71.30;;;;;;4996443;28;20039;-72
2022/05/16 13:36:27;;;;;;;12.15;2.55;;;20.20;70.80;;;;;;5007244;28;20025;-72